createdAt,value
2022-09-09T00:11:18.552Z,4.40
2022-09-09T00:26:42.128Z,5.10
2022-09-09T00:42:19.416Z,3.90
2022-09-09T00:57:36.004Z,4.60
2022-09-09T01:12:45.032Z,4.30
2022-09-09T01:27:58.062Z,7.30
2022-09-09T01:43:04.217Z,7.10
2022-09-09T01:58:38.141Z,7.80
2022-09-09T02:13:44.101Z,8.40
2022-09-09T02:28:51.477Z,5.30
2022-09-09T02:43:55.428Z,7.60
2022-09-09T02:58:58.629Z,7.10
2022-09-09T03:14:03.799Z,6.50
2022-09-09T03:29:09.009Z,6.80
2022-09-09T03:44:12.189Z,9.10
2022-09-09T03:59:16.357Z,5.90
2022-09-09T04:14:20.664Z,4.60
2022-09-09T04:29:24.330Z,3.90
2022-09-09T04:44:27.764Z,5.50
2022-09-09T04:59:31.441Z,6.30
2022-09-09T05:14:38.500Z,5.00
2022-09-09T05:29:44.689Z,4.80
2022-09-09T05:44:48.389Z,4.40
2022-09-09T05:59:52.225Z,3.80
2022-09-09T06:14:56.100Z,5.20
2022-09-09T06:29:59.377Z,20.90
2022-09-09T06:45:02.735Z,6.20
2022-09-09T07:00:15.593Z,20.00
2022-09-09T07:15:20.146Z,4.80
2022-09-09T07:30:27.530Z,4.60
2022-09-09T07:45:32.889Z,8.40
2022-09-09T08:00:36.043Z,8.30
2022-09-09T08:15:39.847Z,5.00
2022-09-09T08:30:43.556Z,5.80
2022-09-09T08:46:10.884Z,5.30
2022-09-09T09:01:24.673Z,5.10
2022-09-09T09:16:45.002Z,5.40
2022-09-09T09:32:00.087Z,3.90
2022-09-09T09:47:22.660Z,12.80
2022-09-09T10:02:42.148Z,17.40
2022-09-09T10:18:24.089Z,12.90
2022-09-09T10:33:52.388Z,34.40
2022-09-09T10:49:05.667Z,10.10
2022-09-09T11:04:20.421Z,33.60
2022-09-09T11:19:50.183Z,9.60
2022-09-09T11:35:07.320Z,10.60
2022-09-09T11:50:16.832Z,11.90
2022-09-09T12:05:22.336Z,13.30
2022-09-09T12:20:32.572Z,20.60
2022-09-09T12:35:39.901Z,41.20
2022-09-09T12:50:50.811Z,33.70
2022-09-09T13:06:02.226Z,21.50
2022-09-09T13:21:06.491Z,22.50
2022-09-09T13:36:15.826Z,34.70
2022-09-09T14:06:31.697Z,25.20
2022-09-09T14:21:35.758Z,30.90
2022-09-09T14:36:39.539Z,28.10
2022-09-09T14:51:43.782Z,28.60
2022-09-09T15:06:49.711Z,29.30
2022-09-09T15:21:53.858Z,36.90
2022-09-09T15:36:57.738Z,29.60
2022-09-09T15:54:56.296Z,31.70
2022-09-09T16:10:00.577Z,54.10
2022-09-09T16:25:04.372Z,44.70
2022-09-09T16:40:08.906Z,49.50
2022-09-09T16:55:13.540Z,47.80
2022-09-09T17:10:17.674Z,27.00
2022-09-09T17:25:25.041Z,31.00
2022-09-09T17:40:29.560Z,31.20
2022-09-09T17:55:34.960Z,34.20
2022-09-09T18:10:39.942Z,37.20
2022-09-09T18:25:45.394Z,24.10
2022-09-09T18:40:49.371Z,34.90
2022-09-09T18:56:00.792Z,29.90
2022-09-09T19:11:09.364Z,23.80
2022-09-09T19:26:18.646Z,40.30
2022-09-09T19:56:31.365Z,11.30
2022-09-09T20:11:36.804Z,9.90
2022-09-09T20:26:41.536Z,11.60
2022-09-09T20:41:46.769Z,10.30
2022-09-09T20:56:51.899Z,10.70
2022-09-09T21:11:55.047Z,10.80
2022-09-09T21:27:01.000Z,9.80
2022-09-09T21:42:05.515Z,12.10
2022-09-09T21:57:08.651Z,10.10
2022-09-09T22:12:11.772Z,8.10
2022-09-09T22:27:15.943Z,8.20
2022-09-09T22:42:19.588Z,8.40
2022-09-09T22:57:22.718Z,9.10
2022-09-09T23:12:25.959Z,9.50
2022-09-09T23:27:30.075Z,7.90
2022-09-09T23:42:33.646Z,7.80
2022-09-09T23:57:36.949Z,8.30
